• Join FlightAware (Why Join?)
  • Login
  • US Flag 
02:12AM EDT


 

Airport Tracker/Info


-or-


 

Live Flight TrackerFlight Track Log ✈ SWA1202 ✈ 02-May-2013 ✈ KDEN - KTUL

Flight Track Log - Related Links

Times and Time Zones

All times are in EDT time to prevent confusion due to time zone crossing. See the SWA1202 flight status page for this flight to view local times or setup timezone preferences in your user account.

Time Position Orientation Groundspeed Altitude Reporting Facility
EDT Latitude Longitude Course Direction KTS MPH feet Rate Location/Type
09:56AM 39.8833 -104.6000 52° Northeast 176 203 6,900  Level Denver TRACON
09:57AM 39.8600 -104.5394 117° Southeast 224 258 8,700 1,860 Climbing Denver Center
09:58AM 39.8278 -104.4472 114° Southeast 283 326 10,300 2,520 Climbing Denver Center
09:59AM 39.7903 -104.3367 114° Southeast 313 360 13,900 3,480 Climbing Denver Center
10:00AM 39.7500 -104.2219 115° Southeast 351 404 17,500 3,060 Climbing Denver Center
10:01AM 39.7078 -104.1022 115° Southeast 366 421 20,300 2,640 Climbing Denver Center
10:02AM 39.6589 -103.9631 114° Southeast 397 457 23,000 1,500 Climbing Denver Center
10:03AM 39.6047 -103.8306 118° Southeast 419 482 23,400 1,080 Climbing Denver Center
10:04AM 39.5611 -103.6761 110° East 443 510 25,500 2,160 Climbing Denver Center
10:05AM 39.5092 -103.4833 109° East 480 552 28,300 2,460 Climbing Denver Center
10:06AM 39.4678 -103.3194 108° East 475 547 30,600 1,980 Climbing Denver Center
10:07AM 39.4233 -103.1533 109° East 483 556 32,400 1,620 Climbing Denver Center
10:08AM 39.3772 -102.9847 109° East 492 566 34,000 1,440 Climbing Denver Center
10:09AM 39.3314 -102.8131 109° East 500 575 35,400 1,680 Climbing Denver Center
10:10AM 39.2822 -102.6375 110° East 491 565 37,500 1,800 Climbing Denver Center
10:11AM 39.2336 -102.4575 109° East 478 550 39,200 1,140 Climbing Denver Center
10:12AM 39.1906 -102.3017 110° East 481 554 39,900 720 Climbing Denver Center
10:13AM 39.1392 -102.1147 109° East 493 567 40,700 480 Climbing Denver Center
10:14AM 39.0747 -101.9703 120° Southeast 491 565 41,000 120 Climbing Denver Center
10:15AM 38.9786 -101.8658 140° Southeast 473 544 41,000  Level Denver Center
10:16AM 38.8661 -101.7425 139° Southeast 475 547 41,000  Level Denver Center
10:17AM 38.7700 -101.6389 140° Southeast 471 542 41,000  Level Denver Center
10:18AM 38.6578 -101.5167 140° Southeast 471 542 41,000  Level Denver Center
10:19AM 38.5622 -101.4125 140° Southeast 473 544 41,000  Level Denver Center
10:21AM 38.4508 -101.2925 140° Southeast 468 539 41,000  Level Denver Center
10:22AM 38.3397 -101.1733 140° Southeast 466 536 41,000  Level Denver Center
10:23AM 38.2294 -101.0561 140° Southeast 463 533 41,000  Level Denver Center
10:24AM 38.1553 -100.9317 127° Southeast 464 534 41,000  Level Denver Center
10:25AM 38.0958 -100.7600 114° Southeast 474 545 41,000  Level Denver Center
10:25AM 38.0864 -100.7342 115° Southeast 471 542 41,000  Level Kansas City Center
10:26AM 38.0256 -100.5656 115° Southeast 468 539 41,000  Level Kansas City Center
10:27AM 37.9731 -100.4214 115° Southeast 468 539 41,000  Level Kansas City Center
10:28AM 37.9211 -100.2792 115° Southeast 465 535 41,000  Level Kansas City Center
10:29AM 37.8606 -100.1153 115° Southeast 460 529 41,000  Level Kansas City Center
10:30AM 37.8089 -99.9742 115° Southeast 460 529 41,000  Level Kansas City Center
10:31AM 37.7492 -99.8106 115° Southeast 458 527 41,000  Level Kansas City Center
10:32AM 37.6975 -99.6711 115° Southeast 458 527 41,000  Level Kansas City Center
10:33AM 37.6369 -99.5072 115° Southeast 460 529 41,000  Level Kansas City Center
10:34AM 37.5900 -99.3772 114° Southeast 461 531 41,000  Level Kansas City Center
10:35AM 37.5350 -99.2317 115° Southeast 461 531 41,000  Level Kansas City Center
10:36AM 37.4792 -99.0858 116° Southeast 463 533 41,000  Level Kansas City Center
10:37AM 37.4131 -98.9133 116° Southeast 460 529 41,000 -120 Level Kansas City Center
10:38AM 37.3567 -98.7683 116° Southeast 463 533 40,800 -540 Descending Kansas City Center
10:39AM 37.2997 -98.6206 116° Southeast 467 537 39,900 -960 Descending Kansas City Center
10:40AM 37.2431 -98.4739 116° Southeast 469 540 38,900 -960 Descending Kansas City Center
10:41AM 37.1878 -98.3328 116° Southeast 458 527 38,000 -480 Descending Kansas City Center
10:42AM 37.1322 -98.1906 116° Southeast 456 525 38,000  Level Kansas City Center
10:43AM 37.0775 -98.0497 116° Southeast 453 521 38,000 -300 Level Kansas City Center
10:44AM 37.0108 -97.8822 116° Southeast 450 518 37,400 -780 Descending Kansas City Center
10:46AM 36.9553 -97.7414 116° Southeast 452 520 36,400 -960 Descending Kansas City Center
10:47AM 36.8994 -97.6019 117° Southeast 452 520 35,500 -960 Descending Kansas City Center
10:48AM 36.8467 -97.4564 114° Southeast 457 526 34,500 -1,020 Descending Kansas City Center
10:49AM 36.8236 -97.2847 99° East 466 536 33,500 -1,560 Descending Kansas City Center
10:50AM 36.8008 -97.1269 100° East 465 535 31,300 -2,280 Descending Kansas City Center
10:51AM 36.7819 -96.9792 99° East 453 521 28,900 -2,460 Descending Kansas City Center
10:52AM 36.7825 -96.7972 90° East 439 505 26,300 -2,340 Descending Kansas City Center
10:53AM 36.7794 -96.6497 91° East 429 494 24,200 -2,100 Descending Kansas City Center
10:54AM 36.7767 -96.5075 91° East 416 479 22,000 -2,460 Descending Kansas City Center
10:55AM 36.7731 -96.3686 92° East 405 466 19,200 -2,820 Descending Kansas City Center
10:55AM 36.7442 -96.3097 121° Southeast 376 433 17,800 -2,400 Descending Kansas City Center
10:56AM 36.7042 -96.2811 150° Southeast 352 405 16,900 -2,340 Descending Kansas City Center
10:57AM 36.6239 -96.2183 148° Southeast 353 406 14,100 -2,460 Descending Kansas City Center
10:58AM 36.5269 -96.1422 148° Southeast 340 391 11,700 -2,340 Descending Kansas City Center
10:59AM 36.4531 -96.0842 148° Southeast 318 366 9,400 -1,680 Descending Kansas City Center
11:00AM 36.3858 -96.0331 149° Southeast 275 316 8,300 -1,560 Descending Kansas City Center
11:01AM 36.3325 -95.9725 138° Southeast 267 307 6,300 -2,040 Descending Kansas City Center
11:02AM 36.3000 -95.8858 115° Southeast 273 314 4,300 -1,620 Descending Kansas City Center
11:03AM 36.2639 -95.8078 120° Southeast 256 295 3,100 -840 Descending Kansas City Center
11:04AM 36.2422 -95.7278 109° East 214 246 2,600 -240 Descending Kansas City Center
11:05AM 36.2031 -95.7097 160° South 190 219 2,600 -120 Level Kansas City Center
11:06AM 36.1953 -95.7650 260° West 140 161 2,400 -540 Descending Kansas City Center
11:07AM 36.1953 -95.8172 270° West 157 181 1,500 -720 Descending Kansas City Center
11:08AM 36.1944 -95.8556 268° West 136 157 1,100 -720 Descending Kansas City Center
11:08AM 36.1950 -95.8639 275° West 146 168 800 -1,200 Descending Kansas City Center